Latest Weather Observations for Forbes

IDN60801

Issued at 5:32 pm EST Sunday 30 August 2015 (issued every 30 minutes, with the page automatically refreshed every 10 minutes)

About weather observations | Map of weather stations | Latest weather observations for NSW | Other Formats
Station Details ID: 065103 Name: FORBES AIRPORT AWS Lat: -33.36 Lon: 147.92 Height: 230.4 m
Data from the previous 72 hours. | See also: Recent months at Forbes
Date/Time
EST
Temp
°C
App
Temp
°C
Dew
Point
Rel
Hum
%
Delta-T
°C
Wind Press
QNH
hPa
Press
MSL
hPa
Rain
since 9 am
mm
Dir
 
Spd
km/h
Gust
km/h
Spd
kts
Gust
kts
30/05:30pm 8.9 5.2 6.3 84 1.2 SSW 15 20 8 11 1019.9 1020.2 0.0
30/05:00pm 9.9 6.6 6.6 80 1.6 SW 13 19 7 10 1019.8 1020.1 0.0
30/04:30pm 10.5 7.3 6.8 78 1.8 SW 13 19 7 10 1019.9 1020.2 0.0
30/04:00pm 10.3 6.3 6.6 78 1.8 SW 17 24 9 13 1019.9 1020.2 0.0
30/03:30pm 9.8 5.8 6.5 80 1.6 SW 17 24 9 13 1020.2 1020.5 0.0
30/03:00pm 9.1 5.0 6.2 82 1.3 SW 17 24 9 13 1020.5 1020.8 0.0
30/02:30pm 9.0 4.4 6.6 85 1.1 SW 20 24 11 13 1020.5 1020.8 0.0
30/02:00pm 9.2 5.7 7.3 88 0.9 SW 15 22 8 12 1020.6 1020.9 0.0
30/01:30pm 8.5 5.2 6.6 88 0.9 SW 13 20 7 11 1020.7 1021.0 0.0
30/01:00pm 8.1 4.4 6.4 89 0.8 SW 15 24 8 13 1021.1 1021.4 0.0
30/12:30pm 8.2 4.2 6.7 90 0.7 SW 17 22 9 12 1021.5 1021.8 0.0
30/12:00pm 7.7 4.8 6.5 92 0.6 WSW 11 17 6 9 1021.8 1022.1 0.0
30/11:30am 7.5 4.7 6.9 96 0.3 SW 11 15 6 8 1022.2 1022.5 0.0
30/11:00am 6.7 3.8 6.3 97 0.2 SSW 11 17 6 9 1022.5 1022.7 0.0
30/10:30am 6.4 3.8 6.3 99 0.0 SSW 9 15 5 8 1022.7 1023.0 0.0
30/10:00am 5.8 4.1 5.7 99 0.0 SW 4 9 2 5 1022.8 1023.1 0.0
30/09:30am 5.2 2.4 5.1 99 0.0 SSE 9 15 5 8 1023.0 1023.3 0.0
30/09:00am 4.4 1.1 4.3 99 0.0 SSW 11 15 6 8 1022.9 1023.2 0.0
30/08:30am 4.2 0.4 4.1 99 0.0 S 13 19 7 10 1022.8 1023.1 0.0
30/08:00am 3.8 1.1 3.7 99 0.0 SW 7 11 4 6 1022.6 1022.9 0.0
30/07:30am 1.5 -0.3 1.4 99 0.0 CALM 0 0 0 0 1022.3 1022.6 0.0
30/07:00am 0.5 -1.4 0.4 99 0.0 CALM 0 0 0 0 1022.0 1022.3 0.0
30/06:30am -0.4 -2.5 -0.5 99 0.0 CALM 0 0 0 0 1021.7 1022.0 0.0
30/06:00am -0.1 -2.1 -0.2 99 0.0 CALM 0 0 0 0 1021.4 1021.7 0.0
30/05:30am -0.2 -2.2 -0.3 99 0.0 CALM 0 0 0 0 1021.3 1021.6 0.0
30/05:00am 0.4 -2.9 0.3 99 0.0 NNE 7 9 4 5 1021.4 1021.7 0.0
30/04:30am 0.5 -2.6 0.4 99 0.0 NNE 6 7 3 4 1021.6 1021.9 0.0
30/04:00am 0.4 -2.9 0.3 99 0.0 NE 7 9 4 5 1021.7 1022.0 0.0
30/03:30am 0.6 -1.3 0.5 99 0.0 CALM 0 0 0 0 1021.8 1022.1 0.0
30/03:00am 0.9 -1.0 0.8 99 0.0 CALM 0 0 0 0 1022.0 1022.3 0.0
30/02:30am 1.0 -0.8 0.9 99 0.0 CALM 0 0 0 0 1022.1 1022.4 0.0
30/02:00am 0.9 -1.0 0.6 98 0.1 CALM 0 0 0 0 1022.3 1022.6 0.0
30/01:30am 1.3 -0.5 0.9 97 0.2 CALM 0 0 0 0 1022.8 1023.1 0.0
30/01:00am 2.5 0.9 2.2 98 0.1 CALM 0 0 0 0 1023.3 1023.6 0.0
30/12:30am 1.6 -0.6 1.2 97 0.2 SW 2 6 1 3 1023.5 1023.8 0.0
30/12:00am 2.0 -2.2 1.7 98 0.1 WSW 13 13 7 7 1023.7 1024.0 0.0
 
Date/Time
EST
Temp
°C
App
Temp
°C
Dew
Point
Rel
Hum
%
Delta-T
°C
Wind Press
QNH
hPa
Press
MSL
hPa
Rain
since 9 am
mm
Dir
 
Spd
km/h
Gust
km/h
Spd
kts
Gust
kts
29/11:30pm 2.1 -1.3 1.7 97 0.2 W 9 9 5 5 1023.8 1024.1 0.0
29/11:00pm 2.4 -1.0 1.8 96 0.2 WNW 9 11 5 6 1023.8 1024.1 0.0
29/10:30pm 3.3 1.7 2.7 96 0.2 CALM 0 0 0 0 1023.9 1024.2 0.0
29/10:00pm 3.7 2.2 2.8 94 0.4 CALM 0 0 0 0 1023.9 1024.2 0.0
29/09:30pm 4.3 1.7 3.3 93 0.4 SW 6 7 3 4 1023.9 1024.2 0.0
29/09:00pm 4.7 2.1 3.2 90 0.6 SW 6 7 3 4 1023.9 1024.2 0.0
29/08:30pm 5.3 2.7 3.2 86 0.9 SW 6 7 3 4 1023.6 1023.9 0.0
29/08:00pm 6.4 2.9 3.4 81 1.3 SSW 11 15 6 8 1023.2 1023.5 0.0
29/07:30pm 7.0 3.1 3.3 77 1.6 SSW 13 15 7 8 1023.0 1023.3 0.0
29/07:00pm 7.2 3.3 3.3 76 1.7 SW 13 15 7 8 1022.8 1023.1 0.0
29/06:30pm 7.8 3.9 3.3 73 1.9 SSW 13 15 7 8 1022.6 1022.9 0.0
29/06:00pm 8.9 4.9 3.1 67 2.5 SSW 13 19 7 10 1022.1 1022.4 0.0
29/05:30pm 10.5 5.9 3.5 62 3.1 SSW 17 22 9 12 1021.9 1022.2 0.0
29/05:00pm 11.6 7.1 4.1 60 3.4 SW 17 26 9 14 1021.8 1022.1 0.0
29/04:30pm 12.3 7.4 5.2 62 3.3 SW 20 26 11 14 1021.8 1022.1 0.0
29/04:00pm 13.2 9.0 5.6 60 3.6 SW 17 24 9 13 1021.9 1022.2 0.0
29/03:30pm 13.2 8.6 6.3 63 3.3 SSW 20 28 11 15 1021.9 1022.2 0.0
29/03:00pm 12.6 8.0 5.5 62 3.3 SW 19 24 10 13 1022.1 1022.4 0.0
29/02:30pm 13.6 10.0 6.7 63 3.4 SW 15 22 8 12 1022.2 1022.5 0.0
29/02:00pm 14.0 10.9 7.3 64 3.3 W 13 20 7 11 1022.5 1022.7 0.0
29/01:30pm 13.1 8.8 5.3 59 3.7 WSW 17 30 9 16 1022.9 1023.2 0.0
29/01:00pm 12.6 9.2 5.8 63 3.2 SW 13 19 7 10 1023.5 1023.8 0.0
29/12:30pm 12.9 8.3 5.8 62 3.4 SSW 19 24 10 13 1024.0 1024.3 0.0
29/12:00pm 12.4 8.7 6.5 67 2.8 SW 15 22 8 12 1024.5 1024.8 0.0
29/11:30am 12.3 8.8 7.2 71 2.5 SW 15 22 8 12 1024.7 1025.0 0.0
29/11:00am 11.8 7.8 6.5 70 2.5 SW 17 24 9 13 1024.9 1025.2 0.0
29/10:30am 11.7 8.1 6.6 71 2.4 SW 15 22 8 12 1024.9 1025.2 0.0
29/10:00am 10.9 8.5 7.0 77 1.9 SW 9 15 5 8 1025.1 1025.4 0.0
29/09:30am 9.8 6.9 6.7 81 1.5 SW 11 15 6 8 1025.1 1025.4 0.0
29/09:00am 9.4 7.0 6.8 84 1.2 WSW 9 13 5 7 1025.1 1025.4 0.0
29/08:30am 8.3 5.5 6.9 91 0.7 W 11 15 6 8 1024.8 1025.1 0.0
29/08:00am 7.1 6.4 7.0 99 0.0 CALM 0 0 0 0 1024.7 1025.0 0.0
29/07:30am 4.9 3.7 4.8 99 0.0 CALM 0 0 0 0 1024.5 1024.8 0.0
29/07:00am 3.2 1.7 3.1 99 0.0 CALM 0 0 0 0 1024.1 1024.4 0.0
29/06:30am 2.4 0.8 2.3 99 0.0 CALM 0 0 0 0 1024.0 1024.3 0.0
29/06:00am 3.2 1.7 3.1 99 0.0 CALM 0 0 0 0 1023.8 1024.1 0.0
29/05:30am 3.6 2.2 3.5 99 0.0 CALM 0 0 0 0 1023.7 1024.0 0.0
29/05:00am 3.8 2.4 3.7 99 0.0 CALM 0 0 0 0 1023.7 1024.0 0.0
29/04:30am 3.8 2.4 3.7 99 0.0 CALM 0 0 0 0 1023.6 1023.9 0.0
29/04:00am 4.6 1.7 4.5 99 0.0 NW 9 9 5 5 1023.5 1023.8 0.0
29/03:30am 5.4 4.3 5.0 97 0.2 CALM 0 0 0 0 1023.4 1023.7 0.0
29/03:00am 6.5 5.6 5.9 96 0.3 CALM 0 0 0 0 1023.6 1023.9 0.0
29/02:30am 7.2 5.2 6.3 94 0.4 WSW 6 7 3 4 1023.9 1024.2 0.0
29/02:00am 7.5 5.4 6.6 94 0.4 SW 7 9 4 5 1024.1 1024.4 0.0
29/01:30am 8.2 6.4 7.8 97 0.2 SW 7 9 4 5 1024.3 1024.6 0.0
29/01:00am 8.2 6.4 8.1 99 0.0 SW 7 13 4 7 1024.4 1024.7 0.0
29/12:30am 7.8 6.9 7.7 99 0.0 WSW 2 9 1 5 1024.3 1024.6 0.0
29/12:00am 7.3 6.7 7.2 99 0.0 CALM 0 0 0 0 1024.4 1024.7 0.0
 
Date/Time
EST
Temp
°C
App
Temp
°C
Dew
Point
Rel
Hum
%
Delta-T
°C
Wind Press
QNH
hPa
Press
MSL
hPa
Rain
since 9 am
mm
Dir
 
Spd
km/h
Gust
km/h
Spd
kts
Gust
kts
28/11:30pm 6.6 5.8 6.5 99 0.0 CALM 0 0 0 0 1024.5 1024.8 0.0
28/11:00pm 7.2 6.5 6.8 97 0.2 CALM 0 0 0 0 1024.4 1024.7 0.0
28/10:30pm 8.2 7.6 7.6 96 0.3 CALM 0 0 0 0 1024.4 1024.7 0.0
28/10:00pm 9.3 9.0 8.8 97 0.2 CALM 0 0 0 0 1024.4 1024.7 0.0
28/09:30pm 9.6 9.4 9.1 97 0.2 CALM 0 0 0 0 1024.5 1024.8 0.0
28/09:00pm 9.8 9.6 9.2 96 0.3 CALM 0 0 0 0 1024.4 1024.7 0.0
28/08:30pm 9.9 9.7 9.1 95 0.4 CALM 0 0 0 0 1024.3 1024.6 0.0
28/08:00pm 10.1 9.9 9.2 94 0.4 CALM 0 0 0 0 1024.2 1024.5 0.0
28/07:30pm 10.1 9.9 8.9 92 0.6 CALM 0 0 0 0 1024.1 1024.4 0.0
28/07:00pm 9.8 9.5 8.6 92 0.6 CALM 0 0 0 0 1024.0 1024.3 0.0
28/06:30pm 10.3 9.9 8.2 87 1.0 CALM 0 0 0 0 1023.7 1024.0 0.0
28/06:00pm 10.6 10.2 8.4 86 1.1 CALM 0 0 0 0 1023.5 1023.8 0.0
28/05:30pm 10.4 8.8 8.0 85 1.2 WSW 6 7 3 4 1023.3 1023.6 0.0
28/05:00pm 11.3 8.3 7.8 79 1.7 WSW 13 17 7 9 1023.3 1023.6 0.0
28/04:30pm 12.1 9.2 8.2 77 1.9 WSW 13 15 7 8 1023.1 1023.4 0.0
28/04:00pm 12.4 10.0 8.7 78 1.9 SW 11 17 6 9 1023.0 1023.3 0.0
28/03:30pm 12.2 9.5 8.9 80 1.7 SW 13 19 7 10 1022.9 1023.2 0.0
28/03:00pm 11.5 8.2 8.2 80 1.6 WSW 15 19 8 10 1022.9 1023.2 0.0
28/02:30pm 12.1 10.2 8.9 81 1.6 W 9 13 5 7 1022.7 1023.0 0.0
28/02:00pm 11.5 9.1 8.7 83 1.4 WSW 11 15 6 8 1022.9 1023.2 0.0
28/01:30pm 11.6 8.8 8.5 81 1.5 WSW 13 17 7 9 1023.0 1023.3 0.0
28/01:00pm 11.4 9.0 8.6 83 1.4 WSW 11 17 6 9 1023.1 1023.4 0.0
28/12:30pm 11.3 8.4 8.2 81 1.5 W 13 19 7 10 1023.6 1023.9 0.0
28/12:00pm 11.7 8.9 8.4 80 1.6 W 13 20 7 11 1023.8 1024.1 0.0
28/11:30am 11.1 8.7 8.7 85 1.2 WSW 11 17 6 9 1024.0 1024.3 0.0
28/11:00am 11.3 9.2 8.3 82 1.5 SW 9 17 5 9 1024.0 1024.3 0.0
28/10:30am 10.6 7.8 8.7 88 0.9 WSW 13 19 7 10 1024.1 1024.4 0.0
28/10:00am 10.1 6.9 8.4 89 0.8 SW 15 20 8 11 1024.0 1024.3 0.0
28/09:30am 9.5 6.8 8.9 96 0.3 WSW 13 19 7 10 1023.9 1024.2 0.0
28/09:00am 8.7 5.5 8.4 98 0.1 WSW 15 20 8 11 1023.8 1024.1 5.8
28/08:30am 8.4 5.9 8.1 98 0.1 W 11 17 6 9 1023.6 1023.9 5.8
28/08:00am 7.7 5.4 7.6 99 0.0 W 9 15 5 8 1023.3 1023.6 5.8
28/07:30am 6.3 3.3 6.2 99 0.0 NW 11 15 6 8 1022.9 1023.2 5.8
28/07:00am 6.0 3.4 5.9 99 0.0 WNW 9 11 5 6 1022.8 1023.1 5.8
28/06:30am 5.6 2.9 5.5 99 0.0 NW 9 11 5 6 1022.3 1022.6 5.8
28/06:00am 5.2 2.4 5.1 99 0.0 NW 9 11 5 6 1022.1 1022.4 5.8
28/05:30am 4.9 1.3 4.8 99 0.0 NNW 13 13 7 7 1021.8 1022.1 5.8
28/05:00am 3.4 0.2 3.3 99 0.0 NNW 9 11 5 6 1021.5 1021.8 5.8
28/04:30am 4.4 0.7 4.3 99 0.0 NNW 13 15 7 8 1021.1 1021.4 5.8
28/04:00am 4.1 0.7 4.0 99 0.0 NNW 11 13 6 7 1021.1 1021.4 5.8
28/03:30am 3.9 1.4 3.8 99 0.0 NNW 6 7 3 4 1021.1 1021.4 5.8
28/03:00am 4.9 2.6 4.8 99 0.0 NW 6 6 3 3 1021.2 1021.5 5.8
28/02:30am 5.2 3.3 5.1 99 0.0 N 4 7 2 4 1021.5 1021.8 5.8
28/02:00am 6.0 5.1 5.9 99 0.0 CALM 0 0 0 0 1021.6 1021.9 5.8
28/01:30am 5.8 3.5 5.7 99 0.0 NNW 7 9 4 5 1021.7 1022.0 5.8
28/01:00am 6.4 4.4 6.3 99 0.0 N 6 9 3 5 1021.8 1022.1 5.8
28/12:30am 7.0 4.2 6.9 99 0.0 NNW 11 13 6 7 1021.9 1022.2 5.8
28/12:00am 6.6 3.7 6.5 99 0.0 N 11 13 6 7 1021.9 1022.2 5.8
 
Date/Time
EST
Temp
°C
App
Temp
°C
Dew
Point
Rel
Hum
%
Delta-T
°C
Wind Press
QNH
hPa
Press
MSL
hPa
Rain
since 9 am
mm
Dir
 
Spd
km/h
Gust
km/h
Spd
kts
Gust
kts
27/11:30pm 5.7 3.0 5.6 99 0.0 NW 9 9 5 5 1022.0 1022.3 5.8
27/11:00pm 6.4 3.5 6.3 99 0.0 NNW 11 13 6 7 1022.0 1022.3 5.8
27/10:30pm 7.3 6.6 6.9 97 0.2 CALM 0 0 0 0 1022.2 1022.5 5.8
27/10:00pm 7.8 6.1 7.5 98 0.1 N 6 7 3 4 1022.1 1022.4 5.8
27/09:30pm 7.7 7.1 7.6 99 0.0 CALM 0 0 0 0 1022.0 1022.3 5.8
27/09:00pm 7.5 6.8 6.8 95 0.3 CALM 0 0 0 0 1021.9 1022.2 5.8
27/08:30pm 7.5 6.3 6.6 94 0.4 WSW 2 9 1 5 1021.8 1022.1 5.8
27/08:00pm 7.9 5.4 6.4 90 0.7 WSW 9 11 5 6 1021.6 1021.9 5.8
27/07:30pm 8.6 6.2 6.9 89 0.8 WSW 9 13 5 7 1021.3 1021.6 5.8
27/07:00pm 9.3 6.3 7.7 90 0.8 WSW 13 17 7 9 1021.1 1021.4 5.8
27/06:30pm 10.1 7.2 8.2 88 0.9 W 13 19 7 10 1020.6 1020.9 5.8
27/06:00pm 9.8 6.8 7.7 87 1.0 W 13 17 7 9 1020.2 1020.5 5.8

Other Formats:

Comma delimited format used in spreadsheet applications
http://www.bom.gov.au/fwo/IDN60801/IDN60801.94715.axf

JavaScript Object Notation format (JSON) in row-major order
http://www.bom.gov.au/fwo/IDN60801/IDN60801.94715.json